sensor_id;sensor_type;location;lat;lon;timestamp;pressure;altitude;pressure_sealevel;temperature;humidity
39341;BME280;25059;52.132;21.062;2023-01-28T06:40:19;101162.56;;;1.05;100.00
39341;BME280;25059;52.132;21.062;2023-01-28T06:43:06;101156.38;;;0.94;100.00
39341;BME280;25059;52.132;21.062;2023-01-28T06:45:51;101164.09;;;0.91;100.00
39341;BME280;25059;52.132;21.062;2023-01-28T06:48:36;101160.69;;;0.95;100.00
39341;BME280;25059;52.132;21.062;2023-01-28T06:51:20;101164.97;;;0.91;100.00
39341;BME280;25059;52.132;21.062;2023-01-28T06:54:05;101163.19;;;0.87;100.00
39341;BME280;25059;52.132;21.062;2023-01-28T06:56:50;101167.53;;;0.90;100.00
39341;BME280;25059;52.132;21.062;2023-01-28T06:59:35;101168.38;;;0.87;100.00
39341;BME280;25059;52.132;21.062;2023-01-28T07:02:19;101171.13;;;1.00;100.00
39341;BME280;25059;52.132;21.062;2023-01-28T07:05:05;101175.47;;;1.02;100.00
39341;BME280;25059;52.132;21.062;2023-01-28T07:07:50;101173.66;;;0.96;100.00
39341;BME280;25059;52.132;21.062;2023-01-28T07:10:35;101182.34;;;1.02;100.00
39341;BME280;25059;52.132;21.062;2023-01-28T07:13:20;101184.06;;;1.01;100.00
39341;BME280;25059;52.132;21.062;2023-01-28T07:16:05;101187.56;;;1.03;100.00
39341;BME280;25059;52.132;21.062;2023-01-28T07:18:50;101186.03;;;1.19;100.00
39341;BME280;25059;52.132;21.062;2023-01-28T07:21:37;101181.66;;;1.13;100.00
39341;BME280;25059;52.132;21.062;2023-01-28T07:24:22;101188.66;;;1.22;100.00
39341;BME280;25059;52.132;21.062;2023-01-28T07:27:06;101184.44;;;1.30;100.00
39341;BME280;25059;52.132;21.062;2023-01-28T07:29:51;101182.63;;;1.23;100.00
39341;BME280;25059;52.132;21.062;2023-01-28T07:32:36;101181.84;;;1.28;100.00
39341;BME280;25059;52.132;21.062;2023-01-28T07:35:21;101183.47;;;1.22;100.00
39341;BME280;25059;52.132;21.062;2023-01-28T07:38:06;101186.94;;;1.22;100.00
39341;BME280;25059;52.132;21.062;2023-01-28T07:40:50;101190.53;;;1.34;100.00
39341;BME280;25059;52.132;21.062;2023-01-28T07:43:38;101188.84;;;1.36;100.00
39341;BME280;25059;52.132;21.062;2023-01-28T07:46:22;101193.13;;;1.35;100.00
39341;BME280;25059;52.132;21.062;2023-01-28T07:49:08;101195.00;;;1.45;100.00
39341;BME280;25059;52.132;21.062;2023-01-28T07:51:52;101193.28;;;1.46;100.00
39341;BME280;25059;52.132;21.062;2023-01-28T07:54:37;101190.72;;;1.50;100.00
39341;BME280;25059;52.132;21.062;2023-01-28T07:57:22;101191.53;;;1.46;100.00
39341;BME280;25059;52.132;21.062;2023-01-28T08:00:07;101188.06;;;1.44;100.00
39341;BME280;25059;52.132;21.062;2023-01-28T08:02:57;101194.16;;;1.48;100.00
39341;BME280;25059;52.132;21.062;2023-01-28T08:05:45;101190.63;;;1.43;100.00
39341;BME280;25059;52.132;21.062;2023-01-28T08:08:30;101188.84;;;1.36;100.00
39341;BME280;25059;52.132;21.062;2023-01-28T08:11:18;101191.41;;;1.34;100.00
39341;BME280;25059;52.132;21.062;2023-01-28T08:14:02;101193.25;;;1.44;100.00
39341;BME280;25059;52.132;21.062;2023-01-28T08:16:50;101191.50;;;1.42;100.00
39341;BME280;25059;52.132;21.062;2023-01-28T08:19:34;101192.47;;;1.51;100.00
39341;BME280;25059;52.132;21.062;2023-01-28T08:22:24;101191.50;;;1.42;100.00
39341;BME280;25059;52.132;21.062;2023-01-28T08:25:08;101188.97;;;1.48;100.00
39341;BME280;25059;52.132;21.062;2023-01-28T08:27:53;101187.19;;;1.42;100.00
39341;BME280;25059;52.132;21.062;2023-01-28T08:30:38;101193.28;;;1.46;100.00
39341;BME280;25059;52.132;21.062;2023-01-28T08:33:23;101194.09;;;1.43;100.00
39341;BME280;25059;52.132;21.062;2023-01-28T08:36:07;101188.16;;;1.53;100.00
39341;BME280;25059;52.132;21.062;2023-01-28T08:38:53;101195.84;;;1.44;100.00
39341;BME280;25059;52.132;21.062;2023-01-28T08:41:38;101197.66;;;1.53;100.00
39341;BME280;25059;52.132;21.062;2023-01-28T08:44:22;101192.53;;;1.56;100.00
39341;BME280;25059;52.132;21.062;2023-01-28T08:47:07;101188.09;;;1.47;100.00
39341;BME280;25059;52.132;21.062;2023-01-28T08:49:52;101186.56;;;1.63;100.00
39341;BME280;25059;52.132;21.062;2023-01-28T08:52:36;101186.50;;;1.58;100.00
39341;BME280;25059;52.132;21.062;2023-01-28T08:55:22;101196.88;;;1.58;100.00
39341;BME280;25059;52.132;21.062;2023-01-28T08:58:10;101196.88;;;1.58;100.00
39341;BME280;25059;52.132;21.062;2023-01-28T09:00:55;101201.22;;;1.63;100.00
39341;BME280;25059;52.132;21.062;2023-01-28T09:03:40;101202.22;;;1.75;100.00
39341;BME280;25059;52.132;21.062;2023-01-28T09:06:25;101196.22;;;1.79;100.00
39341;BME280;25059;52.132;21.062;2023-01-28T09:09:09;101200.41;;;1.67;100.00
39341;BME280;25059;52.132;21.062;2023-01-28T09:11:54;101198.66;;;1.63;100.00
39341;BME280;25059;52.132;21.062;2023-01-28T09:14:38;101207.22;;;1.57;100.00
39341;BME280;25059;52.132;21.062;2023-01-28T09:17:23;101212.47;;;1.65;100.00
39341;BME280;25059;52.132;21.062;2023-01-28T09:20:10;101206.38;;;1.59;100.00
39341;BME280;25059;52.132;21.062;2023-01-28T09:22:57;101221.16;;;1.67;100.00
39341;BME280;25059;52.132;21.062;2023-01-28T09:25:41;101222.81;;;1.61;100.00
39341;BME280;25059;52.132;21.062;2023-01-28T09:28:30;101222.91;;;1.71;100.00
39341;BME280;25059;52.132;21.062;2023-01-28T09:31:15;101226.44;;;1.77;100.00
39341;BME280;25059;52.132;21.062;2023-01-28T09:34:06;101215.22;;;1.77;100.00
39341;BME280;25059;52.132;21.062;2023-01-28T09:36:50;101223.94;;;1.85;100.00
39341;BME280;25059;52.132;21.062;2023-01-28T09:39:36;101221.31;;;1.83;100.00
39341;BME280;25059;52.132;21.062;2023-01-28T09:45:25;101226.63;;;1.94;100.00
39341;BME280;25059;52.132;21.062;2023-01-28T09:48:21;101216.19;;;1.88;100.00
39341;BME280;25059;52.132;21.062;2023-01-28T09:51:14;101217.13;;;1.96;100.00
39341;BME280;25059;52.132;21.062;2023-01-28T09:54:05;101209.34;;;1.93;100.00
39341;BME280;25059;52.132;21.062;2023-01-28T09:57:06;101219.50;;;1.75;100.00
39341;BME280;25059;52.132;21.062;2023-01-28T09:59:53;101210.91;;;1.79;100.00
39341;BME280;25059;52.132;21.062;2023-01-28T10:02:51;101211.22;;;2.09;100.00
39341;BME280;25059;52.132;21.062;2023-01-28T10:05:42;101204.50;;;2.33;100.00
39341;BME280;25059;52.132;21.062;2023-01-28T10:18:30;101188.00;;;2.23;100.00
39341;BME280;25059;52.132;21.062;2023-01-28T10:21:30;101193.16;;;2.21;100.00
39341;BME280;25059;52.132;21.062;2023-01-28T10:24:26;101188.88;;;2.23;100.00
39341;BME280;25059;52.132;21.062;2023-01-28T10:27:19;101185.44;;;2.29;100.00
39341;BME280;25059;52.132;21.062;2023-01-28T10:30:23;101183.88;;;2.51;100.00
39341;BME280;25059;52.132;21.062;2023-01-28T10:33:17;101188.28;;;2.61;100.00
39341;BME280;25059;52.132;21.062;2023-01-28T10:36:02;101190.28;;;3.03;100.00
39341;BME280;25059;52.132;21.062;2023-01-28T10:38:50;101186.88;;;3.13;100.00
39341;BME280;25059;52.132;21.062;2023-01-28T10:41:34;101187.56;;;2.82;100.00
39341;BME280;25059;52.132;21.062;2023-01-28T10:44:29;101184.78;;;2.54;100.00
39341;BME280;25059;52.132;21.062;2023-01-28T10:47:28;101181.50;;;2.84;100.00
39341;BME280;25059;52.132;21.062;2023-01-28T10:50:25;101182.41;;;2.89;100.00
39341;BME280;25059;52.132;21.062;2023-01-28T10:53:10;101184.03;;;2.69;100.00
39341;BME280;25059;52.132;21.062;2023-01-28T10:55:57;101181.38;;;2.62;100.00
39341;BME280;25059;52.132;21.062;2023-01-28T10:59:06;101185.59;;;2.47;100.00
39341;BME280;25059;52.132;21.062;2023-01-28T11:02:04;101183.66;;;2.22;100.00
39341;BME280;25059;52.132;21.062;2023-01-28T11:05:27;101181.03;;;2.19;100.00
39341;BME280;25059;52.132;21.062;2023-01-28T11:08:17;101178.34;;;2.08;100.00
39341;BME280;25059;52.132;21.062;2023-01-28T11:11:13;101174.03;;;2.07;100.00
39341;BME280;25059;52.132;21.062;2023-01-28T11:13:58;101175.59;;;1.90;100.00
39341;BME280;25059;52.132;21.062;2023-01-28T11:16:44;101174.69;;;1.86;100.00
39341;BME280;25059;52.132;21.062;2023-01-28T11:19:33;101165.09;;;1.76;100.00
39341;BME280;25059;52.132;21.062;2023-01-28T11:22:30;101168.63;;;1.84;100.00
39341;BME280;25059;52.132;21.062;2023-01-28T11:25:28;101165.94;;;1.74;100.00
39341;BME280;25059;52.132;21.062;2023-01-28T11:28:18;101166.00;;;1.81;100.00
39341;BME280;25059;52.132;21.062;2023-01-28T11:31:04;101167.78;;;1.87;100.00
39341;BME280;25059;52.132;21.062;2023-01-28T11:36:36;101173.84;;;1.87;100.00
39341;BME280;25059;52.132;21.062;2023-01-28T11:39:23;101166.03;;;1.83;100.00
39341;BME280;25059;52.132;21.062;2023-01-28T11:42:15;101160.72;;;1.71;100.00
39341;BME280;25059;52.132;21.062;2023-01-28T11:45:02;101158.03;;;1.61;100.00
39341;BME280;25059;52.132;21.062;2023-01-28T11:47:57;101163.13;;;1.54;100.00
39341;BME280;25059;52.132;21.062;2023-01-28T11:50:51;101157.97;;;1.55;100.00
39341;BME280;25059;52.132;21.062;2023-01-28T11:54:05;101158.88;;;1.59;100.00
39341;BME280;25059;52.132;21.062;2023-01-28T12:09:44;101151.84;;;1.47;100.00
39341;BME280;25059;52.132;21.062;2023-01-28T12:12:36;101154.50;;;1.53;100.00
39341;BME280;25059;52.132;21.062;2023-01-28T12:18:31;101158.88;;;1.60;100.00
39341;BME280;25059;52.132;21.062;2023-01-28T12:21:24;101151.06;;;1.57;100.00
39341;BME280;25059;52.132;21.062;2023-01-28T12:24:16;101146.81;;;1.63;100.00
39341;BME280;25059;52.132;21.062;2023-01-28T12:33:14;101149.16;;;1.38;100.00
39341;BME280;25059;52.132;21.062;2023-01-28T12:42:17;101146.97;;;1.02;100.00
39341;BME280;25059;52.132;21.062;2023-01-28T12:45:17;101148.84;;;1.12;100.00
39341;BME280;25059;52.132;21.062;2023-01-28T12:51:06;101147.75;;;0.93;100.00
39341;BME280;25059;52.132;21.062;2023-01-28T12:54:00;101147.75;;;0.93;100.00
39341;BME280;25059;52.132;21.062;2023-01-28T12:56:51;101155.63;;;1.04;100.00
39341;BME280;25059;52.132;21.062;2023-01-28T12:59:41;101153.06;;;1.04;100.00
